UIQ weather

Quion Hill Airport
Quion Hill, Shefa, Vanuatu

Public forecast

Using degrees Celsius for public forecast. Weather courtesy of forecast.io.

Closest aviation weather report (METAR) to Quion Hill Airport

Closest report is Bauerfield International Airport, 11.8 nm (21.9 km) SW. Retrieved 2019/12/12 23:00 UTC (42 minutes ago):

NVVV 122300Z 05008KT 9999 SCT020 30/22 Q1010

Closest aviation forecast (TAF) to Quion Hill Airport

Closest forecast is Bauerfield International Airport, 11.8 nm (21.9 km) SW. Retrieved 2019/12/12 18:02 UTC (6 hours ago):

TAF NVVV 121600Z 1218/1318 03002KT 9999 FEW020